sensor_id;sensor_type;location;lat;lon;timestamp;P1;durP1;ratioP1;P2;durP2;ratioP2
51883;SDS011;37915;53.254;6.598;2023-05-07T00:01:42;25.50;;;17.65;;
51883;SDS011;37915;53.254;6.598;2023-05-07T00:04:08;30.45;;;17.77;;
51883;SDS011;37915;53.254;6.598;2023-05-07T00:06:33;26.02;;;19.23;;
51883;SDS011;37915;53.254;6.598;2023-05-07T00:08:59;25.70;;;16.55;;
51883;SDS011;37915;53.254;6.598;2023-05-07T00:11:26;25.77;;;18.63;;
51883;SDS011;37915;53.254;6.598;2023-05-07T00:13:52;26.50;;;17.92;;
51883;SDS011;37915;53.254;6.598;2023-05-07T00:16:18;27.38;;;18.50;;
51883;SDS011;37915;53.254;6.598;2023-05-07T00:18:44;22.35;;;16.30;;
51883;SDS011;37915;53.254;6.598;2023-05-07T00:21:10;27.27;;;19.13;;
51883;SDS011;37915;53.254;6.598;2023-05-07T00:23:36;29.00;;;19.45;;
51883;SDS011;37915;53.254;6.598;2023-05-07T00:26:01;26.65;;;19.33;;
51883;SDS011;37915;53.254;6.598;2023-05-07T00:28:28;23.20;;;16.88;;
51883;SDS011;37915;53.254;6.598;2023-05-07T00:30:53;21.75;;;15.73;;
51883;SDS011;37915;53.254;6.598;2023-05-07T00:33:19;25.27;;;18.00;;
51883;SDS011;37915;53.254;6.598;2023-05-07T00:35:45;26.95;;;18.48;;
51883;SDS011;37915;53.254;6.598;2023-05-07T00:38:11;28.10;;;18.60;;
51883;SDS011;37915;53.254;6.598;2023-05-07T00:40:37;25.65;;;17.67;;
51883;SDS011;37915;53.254;6.598;2023-05-07T00:43:03;27.08;;;18.45;;
51883;SDS011;37915;53.254;6.598;2023-05-07T00:45:28;25.25;;;18.52;;
51883;SDS011;37915;53.254;6.598;2023-05-07T00:47:59;26.27;;;17.85;;
51883;SDS011;37915;53.254;6.598;2023-05-07T00:50:26;25.13;;;18.17;;
51883;SDS011;37915;53.254;6.598;2023-05-07T00:52:53;31.38;;;19.52;;
51883;SDS011;37915;53.254;6.598;2023-05-07T00:55:19;31.05;;;20.00;;
51883;SDS011;37915;53.254;6.598;2023-05-07T00:57:46;25.73;;;18.58;;
51883;SDS011;37915;53.254;6.598;2023-05-07T01:00:12;34.65;;;19.63;;
51883;SDS011;37915;53.254;6.598;2023-05-07T01:02:38;28.73;;;19.08;;
51883;SDS011;37915;53.254;6.598;2023-05-07T01:05:05;28.75;;;19.10;;
51883;SDS011;37915;53.254;6.598;2023-05-07T01:07:32;29.95;;;20.52;;
51883;SDS011;37915;53.254;6.598;2023-05-07T01:09:59;32.80;;;20.45;;
51883;SDS011;37915;53.254;6.598;2023-05-07T01:12:26;29.73;;;19.52;;
51883;SDS011;37915;53.254;6.598;2023-05-07T01:14:53;30.33;;;19.98;;
51883;SDS011;37915;53.254;6.598;2023-05-07T01:17:19;33.20;;;21.73;;
51883;SDS011;37915;53.254;6.598;2023-05-07T01:19:45;27.70;;;20.30;;
51883;SDS011;37915;53.254;6.598;2023-05-07T01:22:12;33.90;;;21.48;;
51883;SDS011;37915;53.254;6.598;2023-05-07T01:24:41;29.25;;;21.33;;
51883;SDS011;37915;53.254;6.598;2023-05-07T01:27:07;29.63;;;20.75;;
51883;SDS011;37915;53.254;6.598;2023-05-07T01:29:33;32.40;;;22.83;;
51883;SDS011;37915;53.254;6.598;2023-05-07T01:31:59;33.88;;;24.10;;
51883;SDS011;37915;53.254;6.598;2023-05-07T01:34:26;33.30;;;22.60;;
51883;SDS011;37915;53.254;6.598;2023-05-07T01:36:55;34.10;;;22.70;;
51883;SDS011;37915;53.254;6.598;2023-05-07T01:39:26;30.73;;;22.85;;
51883;SDS011;37915;53.254;6.598;2023-05-07T01:41:56;34.15;;;23.65;;
51883;SDS011;37915;53.254;6.598;2023-05-07T01:44:24;32.15;;;23.15;;
51883;SDS011;37915;53.254;6.598;2023-05-07T01:46:51;35.88;;;24.60;;
51883;SDS011;37915;53.254;6.598;2023-05-07T01:49:18;35.60;;;25.33;;
51883;SDS011;37915;53.254;6.598;2023-05-07T01:51:44;41.47;;;25.52;;
51883;SDS011;37915;53.254;6.598;2023-05-07T01:54:10;33.20;;;24.50;;
51883;SDS011;37915;53.254;6.598;2023-05-07T01:56:36;36.33;;;23.63;;
51883;SDS011;37915;53.254;6.598;2023-05-07T01:59:01;36.40;;;24.10;;
51883;SDS011;37915;53.254;6.598;2023-05-07T02:01:27;36.28;;;24.27;;
51883;SDS011;37915;53.254;6.598;2023-05-07T02:03:53;33.63;;;24.38;;
51883;SDS011;37915;53.254;6.598;2023-05-07T02:06:19;39.72;;;25.20;;
51883;SDS011;37915;53.254;6.598;2023-05-07T02:08:45;37.38;;;27.05;;
51883;SDS011;37915;53.254;6.598;2023-05-07T02:11:11;41.47;;;25.48;;
51883;SDS011;37915;53.254;6.598;2023-05-07T02:13:37;38.17;;;26.27;;
51883;SDS011;37915;53.254;6.598;2023-05-07T02:16:03;41.88;;;27.05;;
51883;SDS011;37915;53.254;6.598;2023-05-07T02:18:29;40.83;;;27.40;;
51883;SDS011;37915;53.254;6.598;2023-05-07T02:20:55;42.50;;;27.88;;
51883;SDS011;37915;53.254;6.598;2023-05-07T02:23:27;44.65;;;28.20;;
51883;SDS011;37915;53.254;6.598;2023-05-07T02:25:52;42.15;;;28.70;;
51883;SDS011;37915;53.254;6.598;2023-05-07T02:28:18;45.60;;;29.38;;
51883;SDS011;37915;53.254;6.598;2023-05-07T02:30:44;41.85;;;28.67;;
51883;SDS011;37915;53.254;6.598;2023-05-07T02:33:10;43.25;;;29.45;;
51883;SDS011;37915;53.254;6.598;2023-05-07T02:35:37;41.72;;;28.65;;
51883;SDS011;37915;53.254;6.598;2023-05-07T02:38:03;41.83;;;27.20;;
51883;SDS011;37915;53.254;6.598;2023-05-07T02:40:28;42.15;;;27.90;;
51883;SDS011;37915;53.254;6.598;2023-05-07T02:42:55;40.17;;;26.00;;
51883;SDS011;37915;53.254;6.598;2023-05-07T02:45:20;36.35;;;25.25;;
51883;SDS011;37915;53.254;6.598;2023-05-07T02:47:46;36.05;;;23.92;;
51883;SDS011;37915;53.254;6.598;2023-05-07T02:50:12;34.90;;;24.05;;
51883;SDS011;37915;53.254;6.598;2023-05-07T02:52:38;38.47;;;24.63;;
51883;SDS011;37915;53.254;6.598;2023-05-07T02:55:03;37.05;;;23.35;;
51883;SDS011;37915;53.254;6.598;2023-05-07T02:57:29;36.38;;;24.63;;
51883;SDS011;37915;53.254;6.598;2023-05-07T02:59:55;34.78;;;23.48;;
51883;SDS011;37915;53.254;6.598;2023-05-07T03:02:22;37.13;;;23.55;;
51883;SDS011;37915;53.254;6.598;2023-05-07T03:04:48;44.08;;;28.77;;
51883;SDS011;37915;53.254;6.598;2023-05-07T03:07:14;49.28;;;30.17;;
51883;SDS011;37915;53.254;6.598;2023-05-07T03:09:40;46.25;;;29.63;;
51883;SDS011;37915;53.254;6.598;2023-05-07T03:12:05;47.10;;;27.63;;
51883;SDS011;37915;53.254;6.598;2023-05-07T03:14:37;37.88;;;24.70;;
51883;SDS011;37915;53.254;6.598;2023-05-07T03:17:03;34.50;;;22.35;;
51883;SDS011;37915;53.254;6.598;2023-05-07T03:19:29;35.97;;;23.13;;
51883;SDS011;37915;53.254;6.598;2023-05-07T03:21:55;36.78;;;22.25;;
51883;SDS011;37915;53.254;6.598;2023-05-07T03:24:21;33.30;;;22.65;;
51883;SDS011;37915;53.254;6.598;2023-05-07T03:26:47;34.42;;;22.75;;
51883;SDS011;37915;53.254;6.598;2023-05-07T03:29:12;33.03;;;23.00;;
51883;SDS011;37915;53.254;6.598;2023-05-07T03:31:38;30.48;;;21.15;;
51883;SDS011;37915;53.254;6.598;2023-05-07T03:34:04;35.58;;;22.02;;
51883;SDS011;37915;53.254;6.598;2023-05-07T03:36:30;31.63;;;22.23;;
51883;SDS011;37915;53.254;6.598;2023-05-07T03:38:58;40.55;;;24.60;;
51883;SDS011;37915;53.254;6.598;2023-05-07T03:41:24;44.55;;;24.05;;
51883;SDS011;37915;53.254;6.598;2023-05-07T03:43:51;37.33;;;24.15;;
51883;SDS011;37915;53.254;6.598;2023-05-07T03:46:16;37.17;;;24.38;;
51883;SDS011;37915;53.254;6.598;2023-05-07T03:48:43;41.38;;;26.10;;
51883;SDS011;37915;53.254;6.598;2023-05-07T03:51:09;37.67;;;23.02;;
51883;SDS011;37915;53.254;6.598;2023-05-07T03:53:34;46.13;;;26.73;;
51883;SDS011;37915;53.254;6.598;2023-05-07T03:56:01;41.35;;;26.13;;
51883;SDS011;37915;53.254;6.598;2023-05-07T03:58:27;44.53;;;27.45;;
51883;SDS011;37915;53.254;6.598;2023-05-07T04:00:53;46.38;;;25.55;;
51883;SDS011;37915;53.254;6.598;2023-05-07T04:03:19;42.47;;;26.27;;
51883;SDS011;37915;53.254;6.598;2023-05-07T04:05:45;43.38;;;24.85;;
51883;SDS011;37915;53.254;6.598;2023-05-07T04:08:10;42.88;;;25.88;;
51883;SDS011;37915;53.254;6.598;2023-05-07T04:10:36;38.63;;;24.48;;
51883;SDS011;37915;53.254;6.598;2023-05-07T04:13:01;38.10;;;24.27;;
51883;SDS011;37915;53.254;6.598;2023-05-07T04:15:27;37.88;;;24.02;;
51883;SDS011;37915;53.254;6.598;2023-05-07T04:17:53;37.90;;;23.48;;
51883;SDS011;37915;53.254;6.598;2023-05-07T04:20:18;38.88;;;24.50;;
51883;SDS011;37915;53.254;6.598;2023-05-07T04:22:44;35.90;;;23.05;;
51883;SDS011;37915;53.254;6.598;2023-05-07T04:25:10;35.83;;;23.58;;
51883;SDS011;37915;53.254;6.598;2023-05-07T04:27:36;33.45;;;22.48;;
51883;SDS011;37915;53.254;6.598;2023-05-07T04:30:02;33.90;;;21.92;;
51883;SDS011;37915;53.254;6.598;2023-05-07T04:32:29;31.17;;;21.23;;
51883;SDS011;37915;53.254;6.598;2023-05-07T04:34:55;36.95;;;22.10;;
51883;SDS011;37915;53.254;6.598;2023-05-07T04:37:21;37.15;;;22.42;;
51883;SDS011;37915;53.254;6.598;2023-05-07T04:39:47;35.00;;;22.90;;
51883;SDS011;37915;53.254;6.598;2023-05-07T04:42:17;35.15;;;20.98;;
51883;SDS011;37915;53.254;6.598;2023-05-07T04:44:52;34.85;;;22.13;;
51883;SDS011;37915;53.254;6.598;2023-05-07T04:47:19;33.55;;;21.88;;
51883;SDS011;37915;53.254;6.598;2023-05-07T04:49:44;36.17;;;20.63;;
51883;SDS011;37915;53.254;6.598;2023-05-07T04:52:10;28.08;;;19.50;;
51883;SDS011;37915;53.254;6.598;2023-05-07T04:54:36;35.75;;;22.67;;
51883;SDS011;37915;53.254;6.598;2023-05-07T04:57:03;33.85;;;21.60;;
51883;SDS011;37915;53.254;6.598;2023-05-07T04:59:29;36.40;;;21.80;;
51883;SDS011;37915;53.254;6.598;2023-05-07T05:01:55;29.92;;;19.58;;
51883;SDS011;37915;53.254;6.598;2023-05-07T05:04:21;28.80;;;19.67;;
51883;SDS011;37915;53.254;6.598;2023-05-07T05:06:46;36.85;;;22.02;;
51883;SDS011;37915;53.254;6.598;2023-05-07T05:09:12;31.13;;;20.42;;
51883;SDS011;37915;53.254;6.598;2023-05-07T05:11:38;30.38;;;20.58;;
51883;SDS011;37915;53.254;6.598;2023-05-07T05:14:04;32.95;;;20.55;;
51883;SDS011;37915;53.254;6.598;2023-05-07T05:16:30;29.77;;;18.98;;
51883;SDS011;37915;53.254;6.598;2023-05-07T05:18:56;31.40;;;21.23;;
51883;SDS011;37915;53.254;6.598;2023-05-07T05:21:22;37.13;;;23.70;;
51883;SDS011;37915;53.254;6.598;2023-05-07T05:23:47;34.83;;;23.92;;
51883;SDS011;37915;53.254;6.598;2023-05-07T05:26:13;36.25;;;24.15;;
51883;SDS011;37915;53.254;6.598;2023-05-07T05:28:39;35.97;;;23.77;;
51883;SDS011;37915;53.254;6.598;2023-05-07T05:31:04;37.97;;;22.60;;
51883;SDS011;37915;53.254;6.598;2023-05-07T05:33:30;34.78;;;22.63;;
51883;SDS011;37915;53.254;6.598;2023-05-07T05:35:56;25.10;;;18.95;;
51883;SDS011;37915;53.254;6.598;2023-05-07T05:38:22;35.88;;;22.63;;
51883;SDS011;37915;53.254;6.598;2023-05-07T05:40:47;33.10;;;22.85;;
51883;SDS011;37915;53.254;6.598;2023-05-07T05:43:13;28.38;;;21.00;;
51883;SDS011;37915;53.254;6.598;2023-05-07T05:45:39;33.25;;;21.92;;
51883;SDS011;37915;53.254;6.598;2023-05-07T05:48:05;33.60;;;23.48;;
51883;SDS011;37915;53.254;6.598;2023-05-07T05:50:32;34.08;;;22.52;;
51883;SDS011;37915;53.254;6.598;2023-05-07T05:52:58;44.58;;;28.60;;
51883;SDS011;37915;53.254;6.598;2023-05-07T05:55:23;39.17;;;26.65;;
51883;SDS011;37915;53.254;6.598;2023-05-07T05:57:49;37.28;;;25.05;;
51883;SDS011;37915;53.254;6.598;2023-05-07T06:00:16;40.40;;;26.30;;
51883;SDS011;37915;53.254;6.598;2023-05-07T06:02:41;36.33;;;25.02;;
51883;SDS011;37915;53.254;6.598;2023-05-07T06:05:10;34.17;;;23.73;;
51883;SDS011;37915;53.254;6.598;2023-05-07T06:07:35;32.17;;;22.45;;
51883;SDS011;37915;53.254;6.598;2023-05-07T06:10:01;32.67;;;22.40;;
51883;SDS011;37915;53.254;6.598;2023-05-07T06:12:27;31.83;;;21.98;;
51883;SDS011;37915;53.254;6.598;2023-05-07T06:14:52;33.35;;;23.77;;
51883;SDS011;37915;53.254;6.598;2023-05-07T06:17:18;38.05;;;26.23;;
51883;SDS011;37915;53.254;6.598;2023-05-07T06:19:44;44.42;;;28.80;;
51883;SDS011;37915;53.254;6.598;2023-05-07T06:22:12;46.35;;;29.17;;
51883;SDS011;37915;53.254;6.598;2023-05-07T06:24:38;46.85;;;31.17;;
51883;SDS011;37915;53.254;6.598;2023-05-07T06:27:04;42.70;;;29.92;;
51883;SDS011;37915;53.254;6.598;2023-05-07T06:29:30;42.58;;;27.25;;
51883;SDS011;37915;53.254;6.598;2023-05-07T06:32:05;40.28;;;27.13;;
51883;SDS011;37915;53.254;6.598;2023-05-07T06:34:32;39.88;;;27.00;;
51883;SDS011;37915;53.254;6.598;2023-05-07T06:36:58;41.88;;;28.83;;
51883;SDS011;37915;53.254;6.598;2023-05-07T06:39:24;37.30;;;24.67;;
51883;SDS011;37915;53.254;6.598;2023-05-07T06:41:49;30.95;;;22.25;;
51883;SDS011;37915;53.254;6.598;2023-05-07T06:44:15;33.20;;;22.35;;
51883;SDS011;37915;53.254;6.598;2023-05-07T06:46:41;29.70;;;22.52;;
51883;SDS011;37915;53.254;6.598;2023-05-07T06:49:06;31.20;;;20.98;;
51883;SDS011;37915;53.254;6.598;2023-05-07T06:51:32;27.05;;;18.42;;
51883;SDS011;37915;53.254;6.598;2023-05-07T06:53:58;29.95;;;19.70;;
51883;SDS011;37915;53.254;6.598;2023-05-07T06:56:24;28.63;;;20.23;;
51883;SDS011;37915;53.254;6.598;2023-05-07T06:58:50;28.70;;;18.98;;
51883;SDS011;37915;53.254;6.598;2023-05-07T07:01:16;27.80;;;19.48;;
51883;SDS011;37915;53.254;6.598;2023-05-07T07:03:41;28.02;;;18.48;;
51883;SDS011;37915;53.254;6.598;2023-05-07T07:06:07;27.20;;;18.55;;
51883;SDS011;37915;53.254;6.598;2023-05-07T07:08:33;25.63;;;17.67;;
51883;SDS011;37915;53.254;6.598;2023-05-07T07:11:00;25.83;;;18.88;;
51883;SDS011;37915;53.254;6.598;2023-05-07T07:13:26;27.77;;;19.50;;
51883;SDS011;37915;53.254;6.598;2023-05-07T07:15:52;27.98;;;18.45;;
51883;SDS011;37915;53.254;6.598;2023-05-07T07:18:18;25.73;;;16.80;;
51883;SDS011;37915;53.254;6.598;2023-05-07T07:20:44;29.05;;;20.02;;
51883;SDS011;37915;53.254;6.598;2023-05-07T07:23:10;25.75;;;18.83;;
51883;SDS011;37915;53.254;6.598;2023-05-07T07:25:36;25.63;;;17.92;;
51883;SDS011;37915;53.254;6.598;2023-05-07T07:28:01;26.77;;;18.58;;
51883;SDS011;37915;53.254;6.598;2023-05-07T07:30:27;28.58;;;19.20;;
51883;SDS011;37915;53.254;6.598;2023-05-07T07:32:53;28.38;;;18.92;;
51883;SDS011;37915;53.254;6.598;2023-05-07T07:35:20;27.95;;;18.25;;
51883;SDS011;37915;53.254;6.598;2023-05-07T07:37:46;25.77;;;17.52;;
51883;SDS011;37915;53.254;6.598;2023-05-07T07:40:14;28.95;;;20.00;;
51883;SDS011;37915;53.254;6.598;2023-05-07T07:42:40;25.35;;;17.17;;
51883;SDS011;37915;53.254;6.598;2023-05-07T07:45:07;28.25;;;18.23;;
51883;SDS011;37915;53.254;6.598;2023-05-07T07:47:33;29.38;;;18.10;;
51883;SDS011;37915;53.254;6.598;2023-05-07T07:49:59;28.40;;;18.30;;
51883;SDS011;37915;53.254;6.598;2023-05-07T07:52:25;30.38;;;18.42;;
51883;SDS011;37915;53.254;6.598;2023-05-07T07:54:50;27.45;;;18.30;;
51883;SDS011;37915;53.254;6.598;2023-05-07T07:57:16;29.83;;;19.13;;
51883;SDS011;37915;53.254;6.598;2023-05-07T07:59:42;27.63;;;19.17;;
51883;SDS011;37915;53.254;6.598;2023-05-07T08:02:08;26.58;;;18.00;;
51883;SDS011;37915;53.254;6.598;2023-05-07T08:04:34;28.27;;;18.77;;
51883;SDS011;37915;53.254;6.598;2023-05-07T08:07:00;28.05;;;18.58;;
51883;SDS011;37915;53.254;6.598;2023-05-07T08:09:26;25.30;;;17.58;;
51883;SDS011;37915;53.254;6.598;2023-05-07T08:11:51;27.88;;;19.42;;
51883;SDS011;37915;53.254;6.598;2023-05-07T08:14:18;28.25;;;18.85;;
51883;SDS011;37915;53.254;6.598;2023-05-07T08:16:43;25.90;;;17.35;;
51883;SDS011;37915;53.254;6.598;2023-05-07T08:19:09;27.63;;;18.35;;
51883;SDS011;37915;53.254;6.598;2023-05-07T08:21:38;25.20;;;17.92;;
51883;SDS011;37915;53.254;6.598;2023-05-07T08:24:04;28.75;;;18.25;;
51883;SDS011;37915;53.254;6.598;2023-05-07T08:26:30;24.50;;;17.42;;
51883;SDS011;37915;53.254;6.598;2023-05-07T08:28:55;30.15;;;20.48;;
51883;SDS011;37915;53.254;6.598;2023-05-07T08:31:21;24.88;;;17.15;;
51883;SDS011;37915;53.254;6.598;2023-05-07T08:33:47;27.30;;;18.73;;
51883;SDS011;37915;53.254;6.598;2023-05-07T08:36:13;27.95;;;18.65;;
51883;SDS011;37915;53.254;6.598;2023-05-07T08:38:38;31.05;;;19.63;;
51883;SDS011;37915;53.254;6.598;2023-05-07T08:41:05;27.60;;;17.65;;
51883;SDS011;37915;53.254;6.598;2023-05-07T08:43:32;26.83;;;17.58;;
51883;SDS011;37915;53.254;6.598;2023-05-07T08:46:01;26.25;;;18.83;;
51883;SDS011;37915;53.254;6.598;2023-05-07T08:48:27;26.17;;;18.60;;
51883;SDS011;37915;53.254;6.598;2023-05-07T08:50:57;28.02;;;18.42;;
51883;SDS011;37915;53.254;6.598;2023-05-07T08:53:23;25.90;;;18.33;;
51883;SDS011;37915;53.254;6.598;2023-05-07T08:55:49;26.88;;;18.75;;
51883;SDS011;37915;53.254;6.598;2023-05-07T08:58:16;25.23;;;17.45;;
51883;SDS011;37915;53.254;6.598;2023-05-07T09:00:41;27.75;;;19.00;;
51883;SDS011;37915;53.254;6.598;2023-05-07T09:03:07;28.40;;;19.77;;
51883;SDS011;37915;53.254;6.598;2023-05-07T09:05:33;25.55;;;16.83;;
51883;SDS011;37915;53.254;6.598;2023-05-07T09:07:59;29.27;;;17.45;;
51883;SDS011;37915;53.254;6.598;2023-05-07T09:10:27;30.17;;;19.08;;
51883;SDS011;37915;53.254;6.598;2023-05-07T09:12:52;25.55;;;17.85;;
51883;SDS011;37915;53.254;6.598;2023-05-07T09:15:18;26.70;;;18.58;;
51883;SDS011;37915;53.254;6.598;2023-05-07T09:17:44;23.48;;;17.15;;
51883;SDS011;37915;53.254;6.598;2023-05-07T09:20:10;26.80;;;19.48;;
51883;SDS011;37915;53.254;6.598;2023-05-07T09:22:36;24.90;;;17.25;;
51883;SDS011;37915;53.254;6.598;2023-05-07T09:25:03;31.67;;;20.05;;
51883;SDS011;37915;53.254;6.598;2023-05-07T09:27:30;28.05;;;19.23;;
51883;SDS011;37915;53.254;6.598;2023-05-07T09:29:56;31.92;;;19.25;;
51883;SDS011;37915;53.254;6.598;2023-05-07T09:32:21;29.33;;;19.08;;
51883;SDS011;37915;53.254;6.598;2023-05-07T09:34:47;26.63;;;19.50;;
51883;SDS011;37915;53.254;6.598;2023-05-07T09:37:13;26.15;;;18.70;;
51883;SDS011;37915;53.254;6.598;2023-05-07T09:39:45;28.00;;;19.00;;
51883;SDS011;37915;53.254;6.598;2023-05-07T09:42:12;21.83;;;16.83;;
51883;SDS011;37915;53.254;6.598;2023-05-07T09:44:40;27.35;;;18.58;;
51883;SDS011;37915;53.254;6.598;2023-05-07T09:47:06;23.98;;;16.67;;
51883;SDS011;37915;53.254;6.598;2023-05-07T09:49:36;21.88;;;16.50;;
51883;SDS011;37915;53.254;6.598;2023-05-07T09:52:05;23.88;;;17.85;;
51883;SDS011;37915;53.254;6.598;2023-05-07T09:54:33;23.77;;;17.30;;
51883;SDS011;37915;53.254;6.598;2023-05-07T09:57:03;23.98;;;17.58;;
51883;SDS011;37915;53.254;6.598;2023-05-07T09:59:31;24.80;;;16.92;;
51883;SDS011;37915;53.254;6.598;2023-05-07T10:01:59;27.27;;;18.05;;
51883;SDS011;37915;53.254;6.598;2023-05-07T10:04:25;24.15;;;16.85;;
51883;SDS011;37915;53.254;6.598;2023-05-07T10:06:51;22.92;;;16.65;;
51883;SDS011;37915;53.254;6.598;2023-05-07T10:09:18;23.63;;;16.88;;
51883;SDS011;37915;53.254;6.598;2023-05-07T10:11:44;22.02;;;15.60;;
51883;SDS011;37915;53.254;6.598;2023-05-07T10:14:11;22.90;;;16.95;;
51883;SDS011;37915;53.254;6.598;2023-05-07T10:16:37;27.20;;;17.55;;
51883;SDS011;37915;53.254;6.598;2023-05-07T10:19:03;22.67;;;16.48;;
51883;SDS011;37915;53.254;6.598;2023-05-07T10:21:29;22.20;;;16.40;;
51883;SDS011;37915;53.254;6.598;2023-05-07T10:24:01;22.13;;;16.08;;
51883;SDS011;37915;53.254;6.598;2023-05-07T10:26:50;21.13;;;15.65;;
51883;SDS011;37915;53.254;6.598;2023-05-07T10:31:59;21.90;;;16.90;;
51883;SDS011;37915;53.254;6.598;2023-05-07T10:34:29;19.35;;;14.98;;
51883;SDS011;37915;53.254;6.598;2023-05-07T10:37:01;21.90;;;15.88;;
51883;SDS011;37915;53.254;6.598;2023-05-07T10:39:27;22.73;;;15.73;;
51883;SDS011;37915;53.254;6.598;2023-05-07T10:41:53;21.92;;;15.95;;
51883;SDS011;37915;53.254;6.598;2023-05-07T10:44:29;21.83;;;16.40;;
51883;SDS011;37915;53.254;6.598;2023-05-07T10:47:15;20.10;;;15.35;;
51883;SDS011;37915;53.254;6.598;2023-05-07T10:54:45;21.50;;;15.25;;
51883;SDS011;37915;53.254;6.598;2023-05-07T11:00:03;19.33;;;14.68;;
51883;SDS011;37915;53.254;6.598;2023-05-07T11:05:31;20.02;;;15.10;;
51883;SDS011;37915;53.254;6.598;2023-05-07T11:08:01;19.25;;;14.25;;
51883;SDS011;37915;53.254;6.598;2023-05-07T11:13:13;19.60;;;15.10;;
51883;SDS011;37915;53.254;6.598;2023-05-07T11:15:46;22.63;;;14.32;;
51883;SDS011;37915;53.254;6.598;2023-05-07T11:20:52;18.40;;;14.23;;
51883;SDS011;37915;53.254;6.598;2023-05-07T11:26:03;18.10;;;14.18;;
51883;SDS011;37915;53.254;6.598;2023-05-07T11:28:30;20.23;;;15.05;;
51883;SDS011;37915;53.254;6.598;2023-05-07T11:30:57;15.98;;;13.18;;
51883;SDS011;37915;53.254;6.598;2023-05-07T11:33:23;18.95;;;13.95;;
51883;SDS011;37915;53.254;6.598;2023-05-07T11:35:50;16.73;;;14.00;;
51883;SDS011;37915;53.254;6.598;2023-05-07T11:38:18;17.23;;;13.90;;
51883;SDS011;37915;53.254;6.598;2023-05-07T11:40:51;18.67;;;13.95;;
51883;SDS011;37915;53.254;6.598;2023-05-07T11:43:17;15.68;;;12.85;;
51883;SDS011;37915;53.254;6.598;2023-05-07T11:45:47;15.95;;;12.75;;
51883;SDS011;37915;53.254;6.598;2023-05-07T11:48:13;18.38;;;13.25;;
51883;SDS011;37915;53.254;6.598;2023-05-07T11:50:52;16.17;;;12.63;;
51883;SDS011;37915;53.254;6.598;2023-05-07T11:53:24;15.10;;;12.68;;
51883;SDS011;37915;53.254;6.598;2023-05-07T11:55:52;19.75;;;12.45;;
51883;SDS011;37915;53.254;6.598;2023-05-07T11:58:22;14.80;;;11.73;;
51883;SDS011;37915;53.254;6.598;2023-05-07T12:00:54;14.93;;;12.30;;
51883;SDS011;37915;53.254;6.598;2023-05-07T12:03:20;15.15;;;12.43;;
51883;SDS011;37915;53.254;6.598;2023-05-07T12:05:46;14.30;;;12.30;;
51883;SDS011;37915;53.254;6.598;2023-05-07T12:08:13;15.10;;;12.48;;
51883;SDS011;37915;53.254;6.598;2023-05-07T12:10:43;15.63;;;12.48;;
51883;SDS011;37915;53.254;6.598;2023-05-07T12:13:16;14.82;;;12.15;;
51883;SDS011;37915;53.254;6.598;2023-05-07T12:15:43;19.00;;;13.38;;
51883;SDS011;37915;53.254;6.598;2023-05-07T12:18:09;15.40;;;12.05;;
51883;SDS011;37915;53.254;6.598;2023-05-07T12:20:36;15.27;;;11.75;;
51883;SDS011;37915;53.254;6.598;2023-05-07T12:23:02;14.25;;;12.15;;
51883;SDS011;37915;53.254;6.598;2023-05-07T12:25:32;13.65;;;11.73;;
51883;SDS011;37915;53.254;6.598;2023-05-07T12:28:00;14.82;;;11.95;;
51883;SDS011;37915;53.254;6.598;2023-05-07T12:30:26;11.90;;;9.77;;
51883;SDS011;37915;53.254;6.598;2023-05-07T12:32:52;14.20;;;11.38;;
51883;SDS011;37915;53.254;6.598;2023-05-07T12:35:29;14.98;;;11.25;;
51883;SDS011;37915;53.254;6.598;2023-05-07T12:37:59;13.70;;;10.15;;
51883;SDS011;37915;53.254;6.598;2023-05-07T12:41:02;14.70;;;11.65;;
51883;SDS011;37915;53.254;6.598;2023-05-07T12:43:21;15.05;;;11.85;;
51883;SDS011;37915;53.254;6.598;2023-05-07T12:45:51;18.95;;;13.50;;
51883;SDS011;37915;53.254;6.598;2023-05-07T12:48:18;13.68;;;11.25;;
51883;SDS011;37915;53.254;6.598;2023-05-07T12:50:44;13.98;;;12.20;;
51883;SDS011;37915;53.254;6.598;2023-05-07T12:53:11;15.20;;;12.40;;
51883;SDS011;37915;53.254;6.598;2023-05-07T12:55:47;15.65;;;12.90;;
51883;SDS011;37915;53.254;6.598;2023-05-07T12:58:18;14.38;;;12.70;;
51883;SDS011;37915;53.254;6.598;2023-05-07T13:00:54;15.98;;;12.35;;
51883;SDS011;37915;53.254;6.598;2023-05-07T13:03:24;13.38;;;11.95;;
51883;SDS011;37915;53.254;6.598;2023-05-07T13:05:55;14.48;;;12.90;;
51883;SDS011;37915;53.254;6.598;2023-05-07T13:08:33;15.25;;;12.93;;
51883;SDS011;37915;53.254;6.598;2023-05-07T13:11:01;16.38;;;12.75;;
51883;SDS011;37915;53.254;6.598;2023-05-07T13:13:31;15.60;;;12.52;;
51883;SDS011;37915;53.254;6.598;2023-05-07T13:15:57;14.48;;;12.90;;
51883;SDS011;37915;53.254;6.598;2023-05-07T13:18:26;13.57;;;12.00;;
51883;SDS011;37915;53.254;6.598;2023-05-07T13:20:54;14.43;;;12.93;;
51883;SDS011;37915;53.254;6.598;2023-05-07T13:23:19;15.48;;;12.80;;
51883;SDS011;37915;53.254;6.598;2023-05-07T13:25:45;13.18;;;11.30;;
51883;SDS011;37915;53.254;6.598;2023-05-07T13:28:11;14.80;;;12.07;;
51883;SDS011;37915;53.254;6.598;2023-05-07T13:30:37;13.48;;;11.40;;
51883;SDS011;37915;53.254;6.598;2023-05-07T13:33:03;12.30;;;10.75;;
51883;SDS011;37915;53.254;6.598;2023-05-07T13:35:29;13.35;;;11.65;;
51883;SDS011;37915;53.254;6.598;2023-05-07T13:37:55;12.95;;;11.55;;
51883;SDS011;37915;53.254;6.598;2023-05-07T13:40:21;12.13;;;10.18;;
51883;SDS011;37915;53.254;6.598;2023-05-07T13:42:48;13.52;;;12.05;;
51883;SDS011;37915;53.254;6.598;2023-05-07T13:45:14;14.63;;;11.80;;
51883;SDS011;37915;53.254;6.598;2023-05-07T13:47:40;12.35;;;11.05;;
51883;SDS011;37915;53.254;6.598;2023-05-07T13:50:07;10.93;;;9.77;;
51883;SDS011;37915;53.254;6.598;2023-05-07T13:52:42;15.80;;;10.90;;
51883;SDS011;37915;53.254;6.598;2023-05-07T13:55:15;14.05;;;11.32;;
51883;SDS011;37915;53.254;6.598;2023-05-07T13:57:42;12.52;;;11.20;;
51883;SDS011;37915;53.254;6.598;2023-05-07T14:00:08;11.18;;;9.98;;
51883;SDS011;37915;53.254;6.598;2023-05-07T14:02:34;11.48;;;9.45;;
51883;SDS011;37915;53.254;6.598;2023-05-07T14:05:00;11.77;;;10.40;;
51883;SDS011;37915;53.254;6.598;2023-05-07T14:07:25;10.38;;;9.27;;
51883;SDS011;37915;53.254;6.598;2023-05-07T14:09:51;11.20;;;9.30;;
51883;SDS011;37915;53.254;6.598;2023-05-07T14:12:17;10.60;;;9.48;;
51883;SDS011;37915;53.254;6.598;2023-05-07T14:14:42;10.02;;;8.65;;
51883;SDS011;37915;53.254;6.598;2023-05-07T14:17:08;10.95;;;9.35;;
51883;SDS011;37915;53.254;6.598;2023-05-07T14:19:34;11.70;;;9.60;;
51883;SDS011;37915;53.254;6.598;2023-05-07T14:21:59;10.30;;;9.20;;
51883;SDS011;37915;53.254;6.598;2023-05-07T14:24:25;11.00;;;9.70;;
51883;SDS011;37915;53.254;6.598;2023-05-07T14:26:51;10.55;;;9.30;;
51883;SDS011;37915;53.254;6.598;2023-05-07T14:29:16;9.95;;;8.23;;
51883;SDS011;37915;53.254;6.598;2023-05-07T14:31:44;11.30;;;9.27;;
51883;SDS011;37915;53.254;6.598;2023-05-07T14:34:10;11.13;;;9.07;;
51883;SDS011;37915;53.254;6.598;2023-05-07T14:36:36;10.88;;;9.13;;
51883;SDS011;37915;53.254;6.598;2023-05-07T14:39:03;11.50;;;8.45;;
51883;SDS011;37915;53.254;6.598;2023-05-07T14:41:29;9.85;;;8.38;;
51883;SDS011;37915;53.254;6.598;2023-05-07T14:43:54;12.05;;;9.23;;